首页
METAR-TAF:

METAR-TAF

机场 :

Laupheim, 德国

纬度: 48-13N, 经度: 009-55E, 海拔: 538米

当前天气观测

该预报发布于57分钟前的18:20 UTC
风速4节,风向西南
温度 5°C
湿度 56%
气压 1029 hPa
能见度10公里或以上
散云层高于11000英尺
多云层高于23000英尺

METAR: ETHL 211820Z 22004KT 9999 SCT110 BKN230 05/M03 Q1029 BLU+

时间: 20:17 (19:17 UTC)

预报

该预报发布于8小时和9分钟前的11:08 UTC
预报有效从21日的 11点(UTC)到 21日的 18点(UTC)
风速12节,风向西
能见度10公里或以上
少量云层高于3000英尺

TAF: ETHL 211108Z 2111/2118 26012KT 9999 NSW FEW030 CANCEL 1115Z

超过4000个机场的气象观测和天气预报(METAR&TAF报告)。

可查询的气象台以黄色和红色小点在地图上表示。

将鼠标移到小点上方,可查看气象台名称。

然后点击查看天气观测和预报。

如需切换地图:点击带黑十字的绿色按钮放大地图;点击带横线的绿色按钮缩小地图;或者点击绿色箭头查看邻近地区的地图。


METAR-TAF: